createdAt,value
2022-08-01T00:01:58.978Z,16.64
2022-08-01T00:04:25.474Z,16.65
2022-08-01T00:06:51.936Z,16.67
2022-08-01T00:09:24.326Z,16.67
2022-08-01T00:11:59.635Z,16.64
2022-08-01T00:14:32.486Z,16.65
2022-08-01T00:17:03.684Z,16.66
2022-08-01T00:19:33.930Z,16.67
2022-08-01T00:22:00.402Z,16.70
2022-08-01T00:24:26.909Z,16.73
2022-08-01T00:26:53.443Z,16.73
2022-08-01T00:30:09.702Z,16.71
2022-08-01T00:32:06.870Z,16.68
2022-08-01T00:34:33.785Z,16.63
2022-08-01T00:37:00.436Z,16.61
2022-08-01T00:39:26.859Z,16.59
2022-08-01T00:41:59.703Z,16.56
2022-08-01T00:44:27.343Z,16.54
2022-08-01T00:46:54.042Z,16.51
2022-08-01T00:49:20.662Z,16.52
2022-08-01T00:51:47.207Z,16.50
2022-08-01T00:54:16.634Z,16.50
2022-08-01T00:56:44.237Z,16.48
2022-08-01T00:59:14.063Z,16.48
2022-08-01T01:01:46.467Z,16.50
2022-08-01T01:04:13.854Z,16.49
2022-08-01T01:07:03.284Z,16.51
2022-08-01T01:09:42.363Z,16.51
2022-08-01T01:12:38.733Z,16.51
2022-08-01T01:15:09.450Z,16.50
2022-08-01T01:17:56.648Z,16.48
2022-08-01T01:20:31.191Z,16.45
2022-08-01T01:23:25.244Z,16.46
2022-08-01T01:25:55.639Z,16.46
2022-08-01T01:28:56.550Z,16.48
2022-08-01T01:31:26.133Z,16.46
2022-08-01T01:33:54.985Z,16.46
2022-08-01T01:36:23.237Z,16.48
2022-08-01T01:38:51.897Z,16.49
2022-08-01T01:41:19.191Z,16.51
2022-08-01T01:43:48.322Z,16.53
2022-08-01T01:46:20.305Z,16.54
2022-08-01T01:48:47.971Z,16.55
2022-08-01T01:51:16.841Z,16.53
2022-08-01T01:53:45.096Z,16.51
2022-08-01T01:56:13.558Z,16.47
2022-08-01T01:58:40.453Z,16.44
2022-08-01T02:01:14.269Z,16.41
2022-08-01T02:03:42.689Z,16.40
2022-08-01T02:06:09.705Z,16.38
2022-08-01T02:08:37.849Z,16.36
2022-08-01T02:11:20.578Z,16.37
2022-08-01T02:13:59.834Z,16.36
2022-08-01T02:16:29.687Z,16.36
2022-08-01T02:18:56.810Z,16.34
2022-08-01T02:21:31.456Z,16.35
2022-08-01T02:24:06.110Z,16.34
2022-08-01T02:26:34.268Z,16.35
2022-08-01T02:29:07.548Z,16.30
2022-08-01T02:31:39.504Z,16.31
2022-08-01T02:34:10.893Z,16.30
2022-08-01T02:36:38.237Z,16.28
2022-08-01T02:39:14.356Z,16.31
2022-08-01T02:41:44.318Z,16.31
2022-08-01T02:44:16.025Z,16.32
2022-08-01T02:46:50.050Z,16.32
2022-08-01T02:49:20.232Z,16.31
2022-08-01T02:51:49.028Z,16.30
2022-08-01T02:54:18.438Z,16.29
2022-08-01T02:56:48.067Z,16.26
2022-08-01T02:59:19.831Z,16.25
2022-08-01T03:01:50.366Z,16.24
2022-08-01T03:04:19.750Z,16.21
2022-08-01T03:06:47.972Z,16.18
2022-08-01T03:09:16.796Z,16.14
2022-08-01T03:11:45.224Z,16.13
2022-08-01T03:14:13.269Z,16.11
2022-08-01T03:16:42.856Z,16.06
2022-08-01T03:19:11.914Z,16.05
2022-08-01T03:21:40.148Z,16.03
2022-08-01T03:24:08.839Z,16.02
2022-08-01T03:26:37.292Z,16.00
2022-08-01T03:29:07.482Z,15.98
2022-08-01T03:31:39.193Z,15.96
2022-08-01T03:34:07.152Z,15.94
2022-08-01T03:36:38.383Z,15.97
2022-08-01T03:39:10.266Z,15.94
2022-08-01T03:41:42.786Z,15.92
2022-08-01T03:44:15.572Z,15.90
2022-08-01T03:46:48.824Z,15.87
2022-08-01T03:49:22.401Z,15.87
2022-08-01T03:51:50.510Z,15.86
2022-08-01T03:54:21.996Z,15.84
2022-08-01T03:56:50.929Z,15.81
2022-08-01T03:59:18.756Z,15.79
2022-08-01T04:01:48.995Z,15.75
2022-08-01T04:04:15.929Z,15.68
2022-08-01T04:06:44.819Z,15.66
2022-08-01T04:09:13.796Z,15.64
2022-08-01T04:11:41.911Z,15.59
2022-08-01T04:14:09.336Z,15.54
2022-08-01T04:16:36.281Z,15.51
2022-08-01T04:19:03.008Z,15.55
2022-08-01T04:21:33.416Z,15.54
2022-08-01T04:24:05.946Z,15.51
2022-08-01T04:26:35.744Z,15.53
2022-08-01T04:29:06.105Z,15.49
2022-08-01T04:31:33.870Z,15.48
2022-08-01T04:34:01.790Z,15.50
2022-08-01T04:36:31.008Z,15.49
2022-08-01T04:39:01.400Z,15.50
2022-08-01T04:41:28.774Z,15.49
2022-08-01T04:43:56.044Z,15.49
2022-08-01T04:46:23.391Z,15.49
2022-08-01T04:48:51.562Z,15.49
2022-08-01T04:51:18.939Z,15.52
2022-08-01T04:53:46.922Z,15.53
2022-08-01T04:56:14.367Z,15.52
2022-08-01T04:58:42.453Z,15.52
2022-08-01T05:01:09.703Z,15.50
2022-08-01T05:03:39.010Z,15.53
2022-08-01T05:06:06.509Z,15.54
2022-08-01T05:08:32.904Z,15.54
2022-08-01T05:10:59.609Z,15.59
2022-08-01T05:13:26.703Z,15.63
2022-08-01T05:15:53.594Z,15.68
2022-08-01T05:18:26.100Z,15.73
2022-08-01T05:20:54.956Z,15.76
2022-08-01T05:23:42.130Z,15.84
2022-08-01T05:26:08.322Z,15.90
2022-08-01T05:28:35.832Z,15.84
2022-08-01T05:31:02.227Z,15.79
2022-08-01T05:33:28.657Z,15.78
2022-08-01T05:35:55.127Z,15.73
2022-08-01T05:38:21.602Z,15.73
2022-08-01T05:40:48.126Z,15.78
2022-08-01T05:43:14.556Z,15.85
2022-08-01T05:45:42.578Z,15.87
2022-08-01T05:48:09.199Z,15.91
2022-08-01T05:50:35.604Z,15.83
2022-08-01T05:53:02.064Z,15.73
2022-08-01T05:55:28.499Z,15.73
2022-08-01T05:57:54.930Z,15.98
2022-08-01T06:00:21.563Z,16.26
2022-08-01T06:02:47.987Z,16.50
2022-08-01T06:05:14.503Z,16.65
2022-08-01T06:07:41.279Z,16.82
2022-08-01T06:10:09.198Z,16.99
2022-08-01T06:12:36.481Z,17.12
2022-08-01T06:15:04.461Z,17.06
2022-08-01T06:17:30.926Z,17.18
2022-08-01T06:19:57.394Z,17.33
2022-08-01T06:22:23.854Z,17.41
2022-08-01T06:24:50.958Z,17.51
2022-08-01T06:27:21.538Z,17.67
2022-08-01T06:29:53.441Z,17.67
2022-08-01T06:32:26.681Z,17.63
2022-08-01T06:34:54.295Z,17.80
2022-08-01T06:37:20.795Z,17.91
2022-08-01T06:39:47.648Z,18.01
2022-08-01T06:42:15.802Z,18.03
2022-08-01T06:44:42.433Z,18.00
2022-08-01T06:47:08.877Z,18.11
2022-08-01T06:49:35.857Z,18.08
2022-08-01T06:52:02.346Z,18.21
2022-08-01T06:54:28.753Z,18.14
2022-08-01T06:56:55.185Z,18.37
2022-08-01T06:59:21.596Z,18.25
2022-08-01T07:01:48.009Z,18.65
2022-08-01T07:04:14.400Z,18.75
2022-08-01T07:06:40.773Z,18.82
2022-08-01T07:09:10.921Z,18.26
2022-08-01T07:11:40.411Z,18.42
2022-08-01T07:14:07.188Z,18.03
2022-08-01T07:16:33.598Z,18.03
2022-08-01T07:19:00.029Z,18.48
2022-08-01T07:21:40.613Z,18.68
2022-08-01T07:24:16.059Z,18.21
2022-08-01T07:26:53.184Z,18.05
2022-08-01T07:29:20.954Z,17.99
2022-08-01T07:31:47.448Z,17.84
2022-08-01T07:34:13.850Z,17.77
2022-08-01T07:36:40.263Z,18.42
2022-08-01T07:39:06.697Z,19.02
2022-08-01T07:41:45.623Z,19.08
2022-08-01T07:44:19.650Z,18.29
2022-08-01T07:46:46.077Z,17.82
2022-08-01T07:49:12.556Z,17.71
2022-08-01T07:51:39.205Z,17.63
2022-08-01T07:54:05.658Z,17.86
2022-08-01T07:56:32.218Z,18.15
2022-08-01T07:58:58.647Z,18.24
2022-08-01T08:01:25.089Z,18.29
2022-08-01T08:03:51.508Z,18.98
2022-08-01T08:06:17.923Z,19.86
2022-08-01T08:08:44.391Z,20.56
2022-08-01T08:11:10.945Z,21.00
2022-08-01T08:13:37.385Z,21.79
2022-08-01T08:16:04.133Z,22.74
2022-08-01T08:18:30.586Z,22.64
2022-08-01T08:23:43.979Z,22.04
2022-08-01T08:26:12.085Z,22.77
2022-08-01T08:28:40.401Z,22.57
2022-08-01T08:31:07.506Z,21.91
2022-08-01T08:33:51.141Z,21.89
2022-08-01T08:36:17.683Z,21.99
2022-08-01T08:38:44.309Z,22.18
2022-08-01T08:41:10.726Z,22.35
2022-08-01T08:43:37.153Z,22.37
2022-08-01T08:46:04.327Z,22.56
2022-08-01T08:48:31.663Z,22.56
2022-08-01T08:50:58.832Z,22.58
2022-08-01T08:53:25.780Z,22.43
2022-08-01T08:56:01.921Z,22.18
2022-08-01T08:58:31.592Z,21.92
2022-08-01T09:00:59.366Z,22.15
2022-08-01T09:03:25.941Z,22.09
2022-08-01T09:05:52.498Z,21.35
2022-08-01T09:08:18.883Z,21.26
2022-08-01T09:10:45.338Z,20.96
2022-08-01T09:13:14.704Z,20.96
2022-08-01T09:15:46.215Z,21.06
2022-08-01T09:18:35.522Z,20.77
2022-08-01T09:21:09.003Z,20.62
2022-08-01T09:23:40.628Z,20.38
2022-08-01T09:26:28.742Z,20.30
2022-08-01T09:28:55.166Z,20.44
2022-08-01T09:31:21.602Z,20.38
2022-08-01T09:33:59.221Z,20.37
2022-08-01T09:36:29.237Z,20.49
2022-08-01T09:39:13.748Z,20.56
2022-08-01T09:41:40.633Z,20.69
2022-08-01T09:44:07.210Z,20.70
2022-08-01T09:46:35.206Z,20.57
2022-08-01T09:49:07.524Z,20.61
2022-08-01T09:51:59.017Z,20.54
2022-08-01T09:54:34.469Z,20.56
2022-08-01T09:57:13.547Z,20.46
2022-08-01T09:59:57.806Z,20.44
2022-08-01T10:02:34.299Z,20.48
2022-08-01T10:05:08.225Z,20.37
2022-08-01T10:07:43.873Z,20.16
2022-08-01T10:10:15.719Z,20.13
2022-08-01T10:12:45.198Z,20.22
2022-08-01T10:15:15.435Z,20.42
2022-08-01T10:17:51.578Z,20.17
2022-08-01T10:20:30.305Z,20.13
2022-08-01T10:23:05.922Z,20.33
2022-08-01T10:25:43.785Z,20.42
2022-08-01T10:28:21.681Z,20.57
2022-08-01T10:30:53.061Z,20.87
2022-08-01T10:33:51.417Z,20.86
2022-08-01T10:36:10.614Z,20.57
2022-08-01T10:38:37.789Z,20.61
2022-08-01T10:41:06.467Z,20.90
2022-08-01T10:43:33.338Z,20.93
2022-08-01T10:46:02.993Z,20.93
2022-08-01T10:48:39.859Z,20.97
2022-08-01T10:51:18.117Z,21.10
2022-08-01T10:53:54.710Z,21.57
2022-08-01T10:56:26.846Z,21.58
2022-08-01T10:59:06.552Z,21.43
2022-08-01T11:01:38.636Z,21.46
2022-08-01T11:04:16.581Z,21.99
2022-08-01T11:06:49.775Z,22.24
2022-08-01T11:09:36.501Z,22.00
2022-08-01T11:12:08.166Z,21.79
2022-08-01T11:15:08.367Z,21.44
2022-08-01T11:17:48.403Z,21.34
2022-08-01T11:20:22.400Z,21.45
2022-08-01T11:23:03.012Z,21.59
2022-08-01T11:26:03.470Z,21.64
2022-08-01T11:28:35.726Z,21.97
2022-08-01T11:31:03.109Z,22.04
2022-08-01T11:33:52.265Z,21.97
2022-08-01T11:36:55.403Z,21.94
2022-08-01T11:39:13.761Z,22.10
2022-08-01T11:41:41.533Z,22.63
2022-08-01T11:44:14.350Z,22.57
2022-08-01T11:46:49.872Z,22.97
2022-08-01T11:49:35.208Z,22.82
2022-08-01T11:52:12.213Z,22.86
2022-08-01T11:54:41.506Z,22.71
2022-08-01T11:57:10.910Z,22.33
2022-08-01T12:00:03.711Z,22.48
2022-08-01T12:02:35.207Z,22.74
2022-08-01T12:05:12.729Z,22.99
2022-08-01T12:07:44.530Z,23.07
2022-08-01T12:10:12.171Z,22.87
2022-08-01T12:12:44.609Z,22.60
2022-08-01T12:15:11.767Z,22.55
2022-08-01T12:17:40.371Z,22.65
2022-08-01T12:20:14.044Z,23.00
2022-08-01T12:22:41.484Z,23.51
2022-08-01T12:25:10.753Z,23.95
2022-08-01T12:27:38.872Z,24.28
2022-08-01T12:30:09.343Z,24.20
2022-08-01T12:32:38.472Z,24.28
2022-08-01T12:35:11.531Z,24.56
2022-08-01T12:37:42.704Z,24.49
2022-08-01T12:40:22.109Z,24.46
2022-08-01T12:42:55.225Z,24.30
2022-08-01T12:45:31.415Z,24.08
2022-08-01T12:48:00.473Z,24.44
2022-08-01T12:50:31.653Z,23.73
2022-08-01T12:52:59.513Z,23.57
2022-08-01T12:55:34.324Z,23.80
2022-08-01T12:58:13.906Z,23.95
2022-08-01T13:00:45.066Z,24.16
2022-08-01T13:03:21.906Z,24.46
2022-08-01T13:05:51.221Z,25.22
2022-08-01T13:08:20.031Z,25.51
2022-08-01T13:10:47.262Z,25.29
2022-08-01T13:13:27.774Z,25.39
2022-08-01T13:16:06.249Z,25.29
2022-08-01T13:18:34.327Z,25.87
2022-08-01T13:21:17.472Z,26.72
2022-08-01T13:24:06.113Z,26.51
2022-08-01T13:26:52.341Z,26.51
2022-08-01T13:29:22.465Z,27.17
2022-08-01T13:31:49.069Z,26.46
2022-08-01T13:34:16.471Z,25.63
2022-08-01T13:36:49.043Z,25.51
2022-08-01T13:39:34.241Z,25.79
2022-08-01T13:42:01.713Z,26.33
2022-08-01T13:44:28.266Z,26.87
2022-08-01T13:46:54.749Z,27.24
2022-08-01T13:49:22.813Z,27.40
2022-08-01T13:51:51.459Z,26.03
2022-08-01T13:54:18.767Z,27.18
2022-08-01T13:56:45.222Z,28.26
2022-08-01T13:59:11.651Z,28.65
2022-08-01T14:01:38.198Z,30.28
2022-08-01T14:04:05.201Z,31.52
2022-08-01T14:06:33.102Z,30.49
2022-08-01T14:08:59.641Z,29.80
2022-08-01T14:11:28.583Z,29.90
2022-08-01T14:13:58.374Z,30.64
2022-08-01T14:16:25.101Z,30.91
2022-08-01T14:18:51.700Z,30.36
2022-08-01T14:21:20.235Z,30.52
2022-08-01T14:23:46.642Z,31.05
2022-08-01T14:26:13.206Z,30.89
2022-08-01T14:28:40.168Z,30.60
2022-08-01T14:31:07.266Z,30.61
2022-08-01T14:33:34.294Z,31.44
2022-08-01T14:36:20.717Z,31.92
2022-08-01T14:38:48.058Z,30.74
2022-08-01T14:41:15.650Z,31.25
2022-08-01T14:43:42.420Z,30.86
2022-08-01T14:46:10.780Z,30.72
2022-08-01T14:48:37.264Z,31.36
2022-08-01T14:51:05.059Z,31.20
2022-08-01T14:53:34.327Z,30.98
2022-08-01T14:56:03.700Z,31.35
2022-08-01T14:58:30.138Z,32.00
2022-08-01T15:00:59.303Z,32.13
2022-08-01T15:03:26.323Z,31.15
2022-08-01T15:05:52.737Z,31.31
2022-08-01T15:08:19.201Z,31.59
2022-08-01T15:10:45.676Z,31.57
2022-08-01T15:13:12.106Z,31.83
2022-08-01T15:15:38.567Z,31.70
2022-08-01T15:18:05.385Z,31.73
2022-08-01T15:20:32.109Z,32.12
2022-08-01T15:22:58.771Z,32.24
2022-08-01T15:25:25.171Z,32.36
2022-08-01T15:27:52.182Z,32.21
2022-08-01T15:30:27.170Z,32.39
2022-08-01T15:32:56.247Z,32.21
2022-08-01T15:35:22.766Z,31.39
2022-08-01T15:37:49.183Z,30.39
2022-08-01T15:40:15.667Z,31.25
2022-08-01T15:42:42.121Z,31.05
2022-08-01T15:45:20.646Z,31.27
2022-08-01T15:47:56.801Z,30.95
2022-08-01T15:50:23.429Z,31.15
2022-08-01T15:52:49.900Z,32.68
2022-08-01T15:55:16.318Z,32.87
2022-08-01T15:57:42.709Z,32.41
2022-08-01T16:00:10.045Z,32.95
2022-08-01T16:02:36.444Z,32.52
2022-08-01T16:05:02.905Z,32.09
2022-08-01T16:07:29.414Z,32.35
2022-08-01T16:09:55.976Z,32.35
2022-08-01T16:12:22.430Z,33.27
2022-08-01T16:14:48.834Z,34.19
2022-08-01T16:17:15.245Z,34.03
2022-08-01T16:19:42.029Z,33.76
2022-08-01T16:22:08.797Z,34.86
2022-08-01T16:24:36.288Z,33.49
2022-08-01T16:27:02.724Z,33.78
2022-08-01T16:29:31.372Z,33.61
2022-08-01T16:32:27.866Z,33.59
2022-08-01T16:34:46.946Z,33.33
2022-08-01T16:37:14.600Z,33.60
2022-08-01T16:39:41.153Z,33.66
2022-08-01T16:42:08.312Z,34.16
2022-08-01T16:44:34.942Z,34.81
2022-08-01T16:47:05.694Z,34.67
2022-08-01T16:49:32.482Z,34.07
2022-08-01T16:51:59.186Z,34.07
2022-08-01T16:54:26.393Z,34.31
2022-08-01T16:56:53.849Z,34.11
2022-08-01T16:59:20.287Z,34.23
2022-08-01T17:01:59.394Z,33.83
2022-08-01T17:04:28.263Z,32.96
2022-08-01T17:06:54.891Z,33.67
2022-08-01T17:09:21.485Z,32.86
2022-08-01T17:11:47.927Z,33.44
2022-08-01T17:14:15.092Z,32.68
2022-08-01T17:16:42.148Z,32.50
2022-08-01T17:19:08.815Z,32.58
2022-08-01T17:21:36.391Z,32.64
2022-08-01T17:24:05.633Z,32.36
2022-08-01T17:26:32.106Z,31.81
2022-08-01T17:28:58.560Z,31.90
2022-08-01T17:31:24.972Z,32.37
2022-08-01T17:33:54.724Z,32.19
2022-08-01T17:36:21.725Z,31.15
2022-08-01T17:38:48.410Z,31.23
2022-08-01T17:41:15.033Z,31.60
2022-08-01T17:43:41.551Z,31.96
2022-08-01T17:46:08.293Z,31.72
2022-08-01T17:48:34.904Z,32.47
2022-08-01T17:51:01.475Z,32.02
2022-08-01T17:53:30.866Z,32.32
2022-08-01T17:55:58.872Z,32.77
2022-08-01T17:58:46.005Z,32.30
2022-08-01T18:01:14.704Z,31.13
2022-08-01T18:03:41.966Z,30.76
2022-08-01T18:06:10.536Z,31.02
2022-08-01T18:08:40.278Z,30.73
2022-08-01T18:11:07.754Z,30.17
2022-08-01T18:13:34.172Z,29.39
2022-08-01T18:16:06.747Z,28.20
2022-08-01T18:18:34.244Z,28.38
2022-08-01T18:21:04.524Z,28.40
2022-08-01T18:23:33.489Z,26.03
2022-08-01T18:26:02.236Z,23.02
2022-08-01T18:28:36.632Z,21.50
2022-08-01T18:31:06.096Z,20.75
2022-08-01T18:33:35.854Z,20.41
2022-08-01T18:36:04.547Z,20.10
2022-08-01T18:38:32.895Z,21.23
2022-08-01T18:41:00.793Z,22.96
2022-08-01T18:43:29.838Z,21.91
2022-08-01T18:45:57.475Z,20.39
2022-08-01T18:48:24.275Z,19.51
2022-08-01T18:50:50.923Z,18.98
2022-08-01T18:53:18.677Z,18.71
2022-08-01T18:55:45.185Z,18.40
2022-08-01T18:58:11.687Z,18.18
2022-08-01T19:00:39.715Z,18.05
2022-08-01T19:03:06.328Z,17.86
2022-08-01T19:05:36.131Z,17.69
2022-08-01T19:08:06.954Z,17.51
2022-08-01T19:10:39.341Z,17.36
2022-08-01T19:13:06.286Z,17.18
2022-08-01T19:15:32.772Z,17.00
2022-08-01T19:17:59.447Z,16.88
2022-08-01T19:20:26.312Z,16.79
2022-08-01T19:22:52.752Z,16.67
2022-08-01T19:25:19.286Z,16.55
2022-08-01T19:27:49.300Z,16.44
2022-08-01T19:30:17.466Z,16.32
2022-08-01T19:32:48.928Z,16.20
2022-08-01T19:35:17.029Z,16.10
2022-08-01T19:37:47.293Z,16.05
2022-08-01T19:40:26.321Z,15.94
2022-08-01T19:42:55.835Z,15.84
2022-08-01T19:45:22.570Z,15.71
2022-08-01T19:47:56.042Z,15.62
2022-08-01T19:50:22.743Z,15.60
2022-08-01T19:52:51.388Z,15.51
2022-08-01T19:55:18.771Z,15.42
2022-08-01T19:57:59.366Z,15.33
2022-08-01T20:00:37.042Z,15.29
2022-08-01T20:03:03.936Z,15.28
2022-08-01T20:05:30.804Z,15.22
2022-08-01T20:07:58.545Z,15.16
2022-08-01T20:10:25.097Z,15.06
2022-08-01T20:12:53.152Z,15.08
2022-08-01T20:15:22.317Z,15.03
2022-08-01T20:17:48.704Z,15.03
2022-08-01T20:20:15.161Z,15.02
2022-08-01T20:22:46.191Z,14.97
2022-08-01T20:25:12.806Z,14.87
2022-08-01T20:27:43.135Z,14.83
2022-08-01T20:30:10.275Z,14.79
2022-08-01T20:32:40.258Z,14.70
2022-08-01T20:35:07.749Z,14.65
2022-08-01T20:38:06.413Z,14.64
2022-08-01T20:40:26.861Z,14.58
2022-08-01T20:42:53.964Z,14.47
2022-08-01T20:45:22.346Z,14.46
2022-08-01T20:47:50.208Z,14.41
2022-08-01T20:50:54.386Z,14.41
2022-08-01T20:53:27.416Z,14.34
2022-08-01T20:56:32.143Z,14.26
2022-08-01T20:59:06.434Z,14.18
2022-08-01T21:01:49.372Z,14.13
2022-08-01T21:04:40.968Z,14.18
2022-08-01T21:07:28.820Z,14.16
2022-08-01T21:10:11.472Z,14.13
2022-08-01T21:13:02.636Z,14.14
2022-08-01T21:16:12.601Z,14.10
2022-08-01T21:19:03.683Z,14.10
2022-08-01T21:21:35.655Z,14.14
2022-08-01T21:24:21.974Z,14.07
2022-08-01T21:26:50.180Z,14.05
2022-08-01T21:29:20.087Z,14.03
2022-08-01T21:32:08.613Z,14.04
2022-08-01T21:34:38.194Z,14.02
2022-08-01T21:37:09.410Z,14.00
2022-08-01T21:39:37.097Z,14.03
2022-08-01T21:42:08.438Z,14.04
2022-08-01T21:44:38.722Z,14.01
2022-08-01T21:47:11.776Z,14.02
2022-08-01T21:49:40.644Z,14.01
2022-08-01T21:52:17.992Z,14.03
2022-08-01T21:55:01.432Z,14.01
2022-08-01T21:58:00.385Z,13.98
2022-08-01T22:00:26.944Z,14.02
2022-08-01T22:03:01.177Z,13.97
2022-08-01T22:05:49.521Z,13.92
2022-08-01T22:08:43.945Z,13.94
2022-08-01T22:11:14.000Z,13.96
2022-08-01T22:13:42.004Z,13.93
2022-08-01T22:16:10.114Z,13.94
2022-08-01T22:18:36.552Z,13.97
2022-08-01T22:21:04.136Z,13.99
2022-08-01T22:23:36.778Z,13.95
2022-08-01T22:26:08.053Z,13.97
2022-08-01T22:28:36.036Z,13.95
2022-08-01T22:31:03.236Z,13.96
2022-08-01T22:33:30.688Z,13.90
2022-08-01T22:35:58.405Z,13.92
2022-08-01T22:38:24.953Z,13.90
2022-08-01T22:41:08.727Z,13.93
2022-08-01T22:43:54.182Z,13.92
2022-08-01T22:46:58.017Z,13.95
2022-08-01T22:50:09.765Z,13.97
2022-08-01T22:52:54.946Z,14.02
2022-08-01T22:55:24.322Z,14.05
2022-08-01T22:58:03.251Z,14.06
2022-08-01T23:00:32.597Z,14.08
2022-08-01T23:03:03.593Z,14.10
2022-08-01T23:05:33.054Z,14.09
2022-08-01T23:08:04.075Z,14.12
2022-08-01T23:10:30.492Z,14.12
2022-08-01T23:12:57.526Z,14.13
2022-08-01T23:15:25.008Z,14.13
2022-08-01T23:17:54.417Z,14.15
2022-08-01T23:20:21.531Z,14.14
2022-08-01T23:22:49.400Z,14.09
2022-08-01T23:25:16.064Z,14.04
2022-08-01T23:27:51.776Z,13.98
2022-08-01T23:30:33.645Z,13.97
2022-08-01T23:33:00.404Z,13.93
2022-08-01T23:35:28.405Z,13.87
2022-08-01T23:38:02.219Z,13.84
2022-08-01T23:40:31.274Z,13.83
2022-08-01T23:42:57.998Z,13.79
2022-08-01T23:45:24.518Z,13.80
2022-08-01T23:47:51.646Z,13.76
2022-08-01T23:50:18.365Z,13.79
2022-08-01T23:52:48.287Z,13.77
2022-08-01T23:55:16.742Z,13.82
2022-08-01T23:57:43.694Z,13.79
